NCRGNCAI

Guest
Details From NCRG - Rarotonga Intl
To NCAI - Aitutaki
Flight Number -
Tags generated
Created
Modified
Stats Distance 148 nm / 273 km
Max Altitude 15,200 ft / 4,633 m
Waypoints 4
Social Downloads 1
Likes 0
Share VATSIM

Download

Looking for another format? Having issues loading an existing format? Contact us
Advertisement - Login to hide

Notes

Basic altitude profile: - Ascent Rate: 500ft/min - Ascent Speed: 80kts - Cruise Altitude: 8000ft - Cruise Speed: 110kts - Descent Rate: 700ft/min - Descent Speed: 110kts Options: - Use NATs: yes - Use PACOTS: yes - Use low airways: no - Use high airways: no

Route

NCRG 2100S16000W 2000S16000W NCAI

ID Type Via Altitude Latitude Longitude Leg Dist Tot Dist Heading (true) Name
O NCRG APT - 0 ft / 0 m -21.20274˚ -159.80556˚ - 0 nm - Rarotonga Intl
2100S16000W LATLON - 5,800 ft / 1,768 m -21.00000˚ -160.00000˚ 16 nm 16 nm 318° / 318° -
2000S16000W LATLON - 15,200 ft / 4,633 m -20.00000˚ -160.00000˚ 60 nm 76 nm 0° / 360° -
O NCAI APT - 0 ft / 0 m -18.83708˚ -159.76103˚ 71 nm 147 nm 11° / 11° Aitutaki

Altitude Profile

Advertisement - Login to hide

NCRG

Details ICAO NCRG (RAR)
Name Rarotonga Intl
Region Cook Islands
Timezone Pacific/Rarotonga (UTC-10.0)
Stats Elevation 19 ft / 6 m (AMSL)
Location -21.202739° -159.805555°
Runways 1
Magnetic Variation 13.934° E

METAR

NCRG 132200Z 24005KT 9999 FEW025 BKN050 29/25 Q1007

Decode

TAF

TAF NCRG 131700Z 1318/1418 25005KT 9999 -SHRA FEW009 SCT014 BKN100 PROB30 TEMPO 1400/1406 6000 SHRA BKN014 PROB40 TEMPO 1406/1415 6000 SHRA BKN014

Decode

Departure Runways

ID Width Length Bearing (true) Bearing (mag) Surface Threshold Offset Overrun Length
08 150 ft / 46 m 7,629 ft / 2,325 m 89.99° 76.06° Concrete 400 ft / 122 m 100 ft / 30 m
26 150 ft / 46 m 7,629 ft / 2,325 m 269.98° 256.05° Concrete 0 ft / 0 m 0 ft / 0 m

NCAI

Details ICAO NCAI (AIT)
Name Aitutaki
Region Cook Islands
Timezone Unknown (UTC+0.0)
Stats Elevation 20 ft / 6 m (AMSL)
Location -18.837078° -159.761026°
Runways 1
Magnetic Variation 13.144° E

METAR

NCAI 132200Z AUTO 30006KT 260V330 //// ////// 25/25 Q1008

Decode

TAF

Not found

Destination Runways

ID Width Length Bearing (true) Bearing (mag) Surface Threshold Offset Overrun Length
14 102 ft / 31 m 6,008 ft / 1,831 m 154.20° 141.06° Asphalt 0 ft / 0 m 0 ft / 0 m
32 102 ft / 31 m 6,008 ft / 1,831 m 334.20° 321.06° Asphalt 0 ft / 0 m 0 ft / 0 m

Popular Alternatives